Terminal Aerodrome Forecast
Issued by NWS

Home | Current Version | Previous Version | Text Only | Print | Product List | Glossary Off
Versions: 1 2 3 4 5 6 7 8 9 10 11 12 13 14 15 16 17 18 19 20 21 22 23 24 25 26 27 28

000
FTUS43 KLOT 280533
TAFDPA
TAF
KDPA 280533Z 2806/2906 VRB03KT P6SM SCT250
     FM280800 VRB03KT 3SM BR FEW060
     FM281200 03004KT P6SM SCT060
     FM281600 05007KT P6SM VCSH SCT030 BKN080 PROB30 2817/2821 4SM
      -TSRA BKN030CB
     FM290100 04008KT P6SM SCT030 BKN080=

USA.gov is the U.S. government's official web portal to all federal, state and local government web resources and services.